Time;durP1;ratioP1;P1;durP2;ratioP2;P2;SDS_P1;SDS_P2;PMS_P1;PMS_P2;Temp;Humidity;BMP_temperature;BMP_pressure;BME280_temperature;BME280_humidity;BME280_pressure;Samples;Min_cycle;Max_cycle;Signal;HPM_P1;HPM_P2
2022/05/19 00:01:29;;;;;;;9.52;3.78;;;12.70;99.90;;;;;;4988211;28;20089;-81
2022/05/19 00:03:55;;;;;;;10.55;4.35;;;12.70;99.90;;;;;;4978450;28;20696;-79
2022/05/19 00:06:21;;;;;;;10.77;3.90;;;12.70;99.90;;;;;;4977689;28;20023;-82
2022/05/19 00:08:47;;;;;;;7.20;4.00;;;12.70;99.90;;;;;;4976804;28;20027;-79
2022/05/19 00:11:15;;;;;;;9.82;4.03;;;12.60;99.90;;;;;;4978834;28;20038;-79
2022/05/19 00:13:42;;;;;;;11.32;4.43;;;12.60;99.90;;;;;;4979451;28;20031;-80
2022/05/19 00:16:08;;;;;;;13.75;3.78;;;12.50;99.90;;;;;;4987753;28;20066;-80
2022/05/19 00:18:35;;;;;;;9.32;4.28;;;12.50;99.90;;;;;;4998399;28;20034;-80
2022/05/19 00:21:01;;;;;;;15.43;4.05;;;12.40;99.90;;;;;;4998305;28;20058;-80
2022/05/19 00:23:27;;;;;;;10.23;4.72;;;12.40;99.90;;;;;;4998016;28;20023;-82
2022/05/19 00:25:53;;;;;;;6.25;4.28;;;12.30;99.90;;;;;;4997661;28;20034;-82
2022/05/19 00:28:18;;;;;;;10.40;4.40;;;12.30;99.90;;;;;;4997688;28;20034;-79
2022/05/19 00:30:44;;;;;;;9.23;4.28;;;12.30;99.90;;;;;;4998694;28;20019;-80
2022/05/19 00:33:12;;;;;;;13.52;4.95;;;12.30;99.90;;;;;;4998589;28;20046;-80
2022/05/19 00:35:39;;;;;;;13.18;4.03;;;12.20;99.90;;;;;;4997761;28;20030;-80
2022/05/19 00:38:05;;;;;;;11.50;5.18;;;12.20;99.90;;;;;;4995862;28;20014;-80
2022/05/19 00:40:32;;;;;;;15.93;4.90;;;12.10;99.90;;;;;;4997132;28;20054;-80
2022/05/19 00:42:57;;;;;;;9.07;4.88;;;12.10;99.90;;;;;;4997997;28;20039;-79
2022/05/19 00:45:33;;;;;;;9.13;4.50;;;12.00;99.90;;;;;;4998833;28;20034;-79
2022/05/19 00:48:21;;;;;;;12.27;4.80;;;12.00;99.90;;;;;;4998712;28;20023;-80
2022/05/19 00:50:56;;;;;;;7.22;3.95;;;11.90;99.90;;;;;;4999059;28;20043;-80
2022/05/19 00:53:31;;;;;;;11.15;4.95;;;11.90;99.90;;;;;;4998249;28;20059;-80
2022/05/19 00:56:03;;;;;;;10.75;4.55;;;11.90;99.90;;;;;;4995870;28;20073;-81
2022/05/19 00:58:54;;;;;;;14.70;4.65;;;11.80;99.90;;;;;;4995236;28;20066;-80
2022/05/19 01:01:20;;;;;;;13.70;4.10;;;11.80;99.90;;;;;;4995561;28;20035;-80
2022/05/19 01:03:55;;;;;;;10.10;4.47;;;11.70;99.90;;;;;;4990021;28;20119;-79
2022/05/19 01:06:25;;;;;;;12.93;4.20;;;11.70;99.90;;;;;;4986073;28;20030;-80
2022/05/19 01:09:02;;;;;;;12.95;5.13;;;11.70;99.90;;;;;;4995403;28;20031;-79
2022/05/19 01:11:29;;;;;;;18.50;5.30;;;11.60;99.90;;;;;;4996408;28;20062;-81
2022/05/19 01:13:55;;;;;;;15.93;4.35;;;11.60;99.90;;;;;;4989291;28;20023;-81
2022/05/19 01:16:23;;;;;;;8.88;3.88;;;11.50;99.90;;;;;;4996221;28;20070;-79
2022/05/19 01:18:49;;;;;;;9.32;3.92;;;11.50;99.90;;;;;;4999481;28;20050;-81
2022/05/19 01:21:18;;;;;;;12.48;3.70;;;11.50;99.90;;;;;;4990762;28;20030;-80
2022/05/19 01:24:05;;;;;;;15.00;4.22;;;11.50;99.90;;;;;;4980407;28;20022;-82
2022/05/19 01:26:34;;;;;;;12.77;3.53;;;11.40;99.90;;;;;;4979516;28;20027;-81
2022/05/19 01:29:00;;;;;;;14.20;4.65;;;11.40;99.90;;;;;;4979462;28;20042;-80
2022/05/19 01:31:51;;;;;;;7.85;3.55;;;11.40;99.90;;;;;;4979362;28;20483;-80
2022/05/19 01:34:19;;;;;;;9.35;3.78;;;11.30;99.90;;;;;;4983420;28;20062;-80
2022/05/19 01:36:45;;;;;;;9.48;4.28;;;11.30;99.90;;;;;;4987338;28;20474;-80
2022/05/19 01:39:19;;;;;;;10.73;3.70;;;11.30;99.90;;;;;;4989034;28;20102;-79
2022/05/19 01:42:07;;;;;;;7.60;3.58;;;11.30;99.90;;;;;;4990465;28;20114;-80
2022/05/19 01:44:42;;;;;;;12.52;3.80;;;11.30;99.90;;;;;;4987120;28;20035;-79
2022/05/19 01:47:12;;;;;;;;;;;11.30;99.90;;;;;;4989986;28;20046;-80
2022/05/19 01:49:56;;;;;;;9.75;3.80;;;11.30;99.90;;;;;;4990204;28;19910;-79
2022/05/19 01:52:41;;;;;;;16.75;3.60;;;11.30;99.90;;;;;;4988134;28;20058;-80
2022/05/19 01:55:27;;;;;;;13.90;4.25;;;11.20;99.90;;;;;;4984385;28;20035;-80
2022/05/19 01:58:15;;;;;;;10.75;3.40;;;11.20;99.90;;;;;;4982133;28;20035;-80
2022/05/19 02:00:43;;;;;;;9.48;3.92;;;11.20;99.90;;;;;;4980710;28;20066;-80
2022/05/19 02:03:36;;;;;;;7.10;3.53;;;11.20;99.90;;;;;;4979110;28;20038;-80
2022/05/19 02:06:15;;;;;;;9.43;3.80;;;11.30;99.90;;;;;;4971435;28;20034;-80
2022/05/19 02:08:53;;;;;;;15.20;4.13;;;11.20;99.90;;;;;;4978427;28;20023;-79
2022/05/19 02:11:25;;;;;;;8.20;3.75;;;11.10;99.90;;;;;;4980997;28;20030;-79
2022/05/19 02:13:57;;;;;;;7.75;3.70;;;11.10;99.90;;;;;;4980058;28;20026;-79
2022/05/19 02:16:24;;;;;;;8.00;4.20;;;11.10;99.90;;;;;;4984012;28;20069;-80
2022/05/19 02:18:51;;;;;;;10.05;4.45;;;11.10;99.90;;;;;;4979882;28;20154;-81
2022/05/19 02:21:21;;;;;;;10.90;4.35;;;11.10;99.90;;;;;;4979935;28;20042;-80
2022/05/19 02:23:48;;;;;;;13.43;4.28;;;11.00;99.90;;;;;;4980132;28;20022;-81
2022/05/19 02:26:14;;;;;;;15.73;4.88;;;11.00;99.90;;;;;;4981518;28;20023;-83
2022/05/19 02:28:57;;;;;;;9.13;3.67;;;10.90;99.90;;;;;;4992906;28;20035;-78
2022/05/19 02:31:26;;;;;;;10.00;4.32;;;10.90;99.90;;;;;;4990583;28;20033;-79
2022/05/19 02:33:52;;;;;;;8.10;4.00;;;10.80;99.90;;;;;;4982958;28;20077;-80
2022/05/19 02:36:18;;;;;;;12.60;4.40;;;10.70;99.90;;;;;;4984799;28;20065;-80
2022/05/19 02:38:44;;;;;;;7.05;3.95;;;10.70;99.90;;;;;;4987548;28;20030;-78
2022/05/19 02:41:10;;;;;;;14.98;3.78;;;10.70;99.90;;;;;;4986990;28;20034;-79
2022/05/19 02:43:35;;;;;;;10.10;4.20;;;10.60;99.90;;;;;;4979065;28;20110;-80
2022/05/19 02:46:01;;;;;;;13.25;4.28;;;10.60;99.90;;;;;;4978889;28;20486;-80
2022/05/19 02:48:28;;;;;;;12.65;4.63;;;10.50;99.90;;;;;;4978201;28;20085;-80
2022/05/19 02:50:54;;;;;;;15.27;4.80;;;10.50;99.90;;;;;;4979077;28;20030;-80
2022/05/19 02:53:20;;;;;;;8.20;4.30;;;10.50;99.90;;;;;;4979424;28;20027;-81
2022/05/19 02:55:46;;;;;;;8.35;4.38;;;10.40;99.90;;;;;;4980827;28;20073;-79
2022/05/19 02:58:14;;;;;;;13.98;5.28;;;10.40;99.90;;;;;;4984114;28;20027;-79
2022/05/19 03:00:47;;;;;;;12.93;4.45;;;10.40;99.90;;;;;;4981175;28;20022;-80
2022/05/19 03:03:13;;;;;;;12.43;4.63;;;10.40;99.90;;;;;;4984184;28;20042;-79
2022/05/19 03:05:39;;;;;;;9.90;4.43;;;10.40;99.90;;;;;;4981622;28;20034;-79
2022/05/19 03:08:06;;;;;;;14.77;5.10;;;10.40;99.90;;;;;;4979788;28;20502;-79
2022/05/19 03:10:34;;;;;;;11.02;4.63;;;10.30;99.90;;;;;;4983017;28;20027;-78
2022/05/19 03:12:59;;;;;;;10.38;4.50;;;10.30;99.90;;;;;;4983992;28;20042;-79
2022/05/19 03:15:26;;;;;;;11.05;4.80;;;10.30;99.90;;;;;;4982161;28;20027;-79
2022/05/19 03:17:51;;;;;;;12.93;4.80;;;10.30;99.90;;;;;;5006875;23;20047;-90
2022/05/19 03:20:17;;;;;;;12.30;5.57;;;10.30;99.90;;;;;;4988645;28;20034;-90
2022/05/19 03:22:43;;;;;;;9.38;4.65;;;10.20;99.90;;;;;;4994840;28;20101;-90
2022/05/19 03:25:10;;;;;;;9.13;5.22;;;10.20;99.90;;;;;;4994196;28;20010;-90
2022/05/19 03:27:37;;;;;;;14.70;4.70;;;10.20;99.90;;;;;;4999213;28;20031;-89
2022/05/19 03:30:05;;;;;;;14.55;4.88;;;10.30;99.90;;;;;;4999233;28;20023;-89
2022/05/19 03:32:31;;;;;;;12.45;4.53;;;10.20;99.90;;;;;;4981380;28;20049;-89
2022/05/19 03:34:57;;;;;;;9.85;4.75;;;10.20;99.90;;;;;;4996858;28;20027;-89
2022/05/19 03:37:23;;;;;;;16.08;4.85;;;10.20;99.90;;;;;;4995666;28;20031;-89
2022/05/19 03:39:48;;;;;;;12.73;5.22;;;10.20;99.90;;;;;;4982952;28;20014;-88
2022/05/19 03:42:14;;;;;;;13.30;5.15;;;10.20;99.90;;;;;;4999206;28;20026;-88
2022/05/19 03:44:40;;;;;;;11.32;4.47;;;10.20;99.90;;;;;;4982777;28;20038;-89
2022/05/19 03:47:06;;;;;;;14.63;4.55;;;10.20;99.90;;;;;;4998750;28;20058;-90
2022/05/19 03:49:33;;;;;;;17.95;5.25;;;10.30;99.90;;;;;;4998707;28;20038;-88
2022/05/19 03:51:59;;;;;;;11.77;5.10;;;10.30;99.90;;;;;;4999592;28;20082;-89
2022/05/19 03:54:26;;;;;;;9.18;4.35;;;10.30;99.90;;;;;;4983003;28;20041;-87
2022/05/19 03:56:52;;;;;;;9.77;4.50;;;10.40;99.90;;;;;;4999679;28;20039;-89
2022/05/19 03:59:18;;;;;;;11.07;4.75;;;10.40;99.90;;;;;;4983280;28;20038;-89
2022/05/19 04:01:45;;;;;;;10.30;4.82;;;10.40;99.90;;;;;;4983003;28;20037;-89
2022/05/19 04:04:11;;;;;;;17.00;5.25;;;10.50;99.90;;;;;;4998797;28;20023;-88
2022/05/19 04:06:37;;;;;;;11.07;4.75;;;10.50;99.90;;;;;;4998864;28;20023;-90
2022/05/19 04:09:04;;;;;;;13.70;4.70;;;10.60;99.90;;;;;;4998144;28;20042;-89
2022/05/19 04:11:30;;;;;;;17.13;4.88;;;10.60;99.90;;;;;;4999150;28;20043;-88
2022/05/19 04:13:56;;;;;;;6.57;4.43;;;10.70;99.90;;;;;;4982386;28;20038;-87
2022/05/19 04:16:22;;;;;;;8.50;4.55;;;10.80;99.90;;;;;;4998163;28;20058;-90
2022/05/19 04:18:48;;;;;;;15.25;5.15;;;10.80;99.90;;;;;;4982236;28;20065;-89
2022/05/19 04:21:14;;;;;;;13.05;5.93;;;10.90;99.90;;;;;;4998591;28;20034;-87
2022/05/19 04:23:40;;;;;;;14.25;4.88;;;10.90;99.90;;;;;;4998546;28;20035;-89
2022/05/19 04:26:06;;;;;;;18.73;4.72;;;11.00;99.90;;;;;;4998959;28;20030;-88
2022/05/19 04:28:32;;;;;;;13.73;4.68;;;11.10;99.90;;;;;;4998565;28;20034;-89
2022/05/19 04:30:58;;;;;;;9.25;4.82;;;11.20;99.90;;;;;;4980986;28;20093;-89
2022/05/19 04:33:24;;;;;;;15.82;5.18;;;11.30;99.90;;;;;;4979025;28;20018;-90
2022/05/19 04:35:49;;;;;;;9.32;4.35;;;11.40;99.90;;;;;;4996692;28;20038;-91
2022/05/19 04:38:17;;;;;;;9.52;4.80;;;11.50;99.90;;;;;;4974097;28;20058;-91
2022/05/19 04:40:47;;;;;;;9.85;4.85;;;11.60;99.90;;;;;;4988023;28;20127;-90
2022/05/19 04:43:19;;;;;;;11.25;5.10;;;11.60;99.90;;;;;;4992884;28;20037;-90
2022/05/19 04:45:50;;;;;;;16.70;5.00;;;11.80;99.90;;;;;;4998283;28;20027;-87
2022/05/19 04:48:16;;;;;;;10.32;4.85;;;11.90;99.90;;;;;;4997878;28;20031;-88
2022/05/19 04:50:42;;;;;;;7.30;4.18;;;12.20;99.90;;;;;;4996883;28;20089;-88
2022/05/19 04:53:08;;;;;;;8.57;4.72;;;12.40;99.90;;;;;;4978739;28;20057;-89
2022/05/19 04:55:36;;;;;;;12.45;4.45;;;12.60;99.90;;;;;;5000648;28;20015;-88
2022/05/19 04:58:02;;;;;;;8.18;4.22;;;12.60;99.90;;;;;;5000724;28;20019;-89
2022/05/19 05:00:28;;;;;;;6.57;4.35;;;12.80;99.90;;;;;;5001441;28;20026;-88
2022/05/19 05:02:54;;;;;;;8.85;4.45;;;12.90;99.90;;;;;;5001127;28;20050;-88
2022/05/19 05:05:20;;;;;;;14.05;4.55;;;13.00;99.90;;;;;;4999422;28;20081;-89
2022/05/19 05:07:46;;;;;;;13.60;4.22;;;13.10;99.90;;;;;;5002062;28;20038;-89
2022/05/19 05:10:12;;;;;;;11.00;4.75;;;13.50;99.90;;;;;;4985270;28;20015;-90
2022/05/19 05:12:38;;;;;;;8.65;4.28;;;13.80;99.90;;;;;;5001582;28;20027;-90
2022/05/19 05:15:04;;;;;;;9.88;4.43;;;13.90;99.90;;;;;;5001672;28;20088;-87
2022/05/19 05:17:30;;;;;;;25.42;4.93;;;14.00;99.90;;;;;;5001407;28;20037;-89
2022/05/19 05:19:56;;;;;;;10.07;4.45;;;14.10;99.90;;;;;;5002219;28;20026;-88
2022/05/19 05:22:21;;;;;;;13.02;5.03;;;14.00;99.90;;;;;;5001392;28;20045;-88
2022/05/19 05:24:47;;;;;;;13.68;4.63;;;14.10;99.90;;;;;;4985361;28;20019;-88
2022/05/19 05:27:13;;;;;;;9.38;4.75;;;14.00;99.90;;;;;;5001680;28;20035;-88
2022/05/19 05:29:41;;;;;;;10.63;4.70;;;14.10;99.90;;;;;;4983464;28;20046;-90
2022/05/19 05:32:07;;;;;;;8.70;4.43;;;14.20;99.90;;;;;;4997272;28;20066;-89
2022/05/19 05:34:34;;;;;;;18.83;4.82;;;14.30;99.90;;;;;;4980395;28;20105;-90
2022/05/19 05:37:00;;;;;;;21.20;5.00;;;14.40;99.90;;;;;;4997408;28;20062;-90
2022/05/19 05:39:26;;;;;;;12.20;4.68;;;14.40;99.90;;;;;;4996966;28;20031;-90
2022/05/19 05:41:52;;;;;;;13.50;4.80;;;14.50;99.90;;;;;;4996984;28;20049;-90
2022/05/19 05:44:18;;;;;;;15.10;4.85;;;14.60;99.90;;;;;;4982266;28;20019;-89
2022/05/19 05:46:45;;;;;;;17.75;4.57;;;14.80;99.90;;;;;;5000719;28;20031;-90
2022/05/19 05:49:11;;;;;;;10.35;4.13;;;14.80;99.90;;;;;;4999613;28;20033;-91
2022/05/19 05:51:37;;;;;;;15.52;4.00;;;14.90;99.90;;;;;;4999196;28;20588;-90
2022/05/19 05:54:02;;;;;;;13.93;4.45;;;15.10;99.90;;;;;;4992398;28;20086;-89
2022/05/19 05:56:29;;;;;;;13.07;5.50;;;15.20;99.90;;;;;;4997592;28;20030;-90
2022/05/19 05:58:55;;;;;;;6.45;3.92;;;15.40;99.90;;;;;;4980657;28;20031;-89
2022/05/19 06:01:22;;;;;;;9.77;3.97;;;15.40;99.90;;;;;;4983558;28;20038;-90
2022/05/19 06:03:49;;;;;;;10.73;3.78;;;15.40;99.90;;;;;;4999240;28;20093;-89
2022/05/19 06:06:15;;;;;;;10.02;3.58;;;15.60;99.90;;;;;;4996666;28;20022;-90
2022/05/19 06:08:41;;;;;;;13.55;4.50;;;15.80;99.90;;;;;;4995032;28;20030;-91
2022/05/19 06:11:08;;;;;;;8.32;4.72;;;15.80;99.90;;;;;;4992306;28;20034;-89
2022/05/19 06:13:34;;;;;;;12.57;4.43;;;15.70;99.90;;;;;;4990674;28;20027;-90
2022/05/19 06:16:00;;;;;;;10.27;4.28;;;15.90;99.90;;;;;;4990069;28;20087;-89
2022/05/19 06:18:26;;;;;;;13.00;3.85;;;16.10;99.90;;;;;;4990716;28;20026;-88
2022/05/19 06:20:53;;;;;;;7.93;3.78;;;16.40;99.90;;;;;;4991685;28;20107;-88
2022/05/19 06:23:19;;;;;;;10.27;4.00;;;16.60;99.90;;;;;;4990234;28;20034;-88
2022/05/19 06:25:46;;;;;;;8.18;3.10;;;16.70;99.90;;;;;;4988446;28;20128;-88
2022/05/19 06:28:12;;;;;;;9.02;3.42;;;16.90;99.90;;;;;;4975264;28;20027;-90
2022/05/19 06:30:39;;;;;;;9.25;3.38;;;17.10;99.90;;;;;;4999983;28;20023;-89
2022/05/19 06:33:17;;;;;;;10.48;3.97;;;17.20;99.90;;;;;;4983414;28;20042;-90
2022/05/19 06:35:44;;;;;;;15.77;3.88;;;17.30;99.90;;;;;;4999045;28;20046;-91
2022/05/19 06:38:10;;;;;;;14.20;3.60;;;17.50;99.90;;;;;;4998362;28;20081;-89
2022/05/19 06:40:36;;;;;;;8.80;3.33;;;17.70;99.90;;;;;;4974622;28;20581;-89
2022/05/19 06:43:10;;;;;;;13.95;4.00;;;17.80;99.90;;;;;;4989657;28;20035;-89
2022/05/19 06:45:37;;;;;;;12.77;3.28;;;18.10;99.90;;;;;;4988804;28;20062;-89
2022/05/19 06:48:04;;;;;;;10.93;3.00;;;18.20;99.90;;;;;;4972519;28;20200;-89
2022/05/19 06:50:30;;;;;;;11.93;4.30;;;18.30;99.90;;;;;;4990501;28;20035;-90
2022/05/19 06:53:01;;;;;;;20.15;3.20;;;18.40;99.90;;;;;;4987869;28;20055;-88
2022/05/19 06:55:29;;;;;;;6.25;2.53;;;18.50;99.90;;;;;;4990113;28;20035;-89
2022/05/19 06:57:55;;;;;;;11.52;2.70;;;18.50;99.70;;;;;;4972862;28;20015;-90
2022/05/19 07:00:23;;;;;;;6.25;2.58;;;18.60;99.00;;;;;;4988362;28;20058;-90
2022/05/19 07:02:51;;;;;;;6.97;2.63;;;18.70;99.10;;;;;;4989633;28;20010;-88
2022/05/19 07:05:21;;;;;;;9.95;2.22;;;18.80;98.10;;;;;;4989004;28;20030;-88
2022/05/19 07:07:47;;;;;;;5.72;2.05;;;18.90;96.70;;;;;;4972920;28;20022;-89
2022/05/19 07:10:24;;;;;;;5.93;2.00;;;19.00;95.80;;;;;;4990315;28;20050;-90
2022/05/19 07:12:51;;;;;;;6.10;2.40;;;19.10;95.10;;;;;;4995262;28;20014;-89
2022/05/19 07:15:19;;;;;;;8.40;2.55;;;19.10;94.90;;;;;;4997819;28;20039;-89
2022/05/19 07:17:46;;;;;;;7.38;2.00;;;19.20;94.60;;;;;;4999392;28;20027;-89
2022/05/19 07:22:56;;;;;;;5.85;2.30;;;19.30;94.40;;;;;;4984664;28;20062;-90
2022/05/19 07:25:22;;;;;;;9.15;2.75;;;19.40;94.00;;;;;;4982202;28;20019;-90
2022/05/19 07:27:49;;;;;;;11.68;2.22;;;19.50;93.70;;;;;;4992559;28;20035;-89
2022/05/19 07:30:15;;;;;;;10.40;2.47;;;19.50;93.60;;;;;;4990168;28;20678;-90
2022/05/19 07:32:41;;;;;;;5.22;2.00;;;19.50;93.70;;;;;;4971995;28;20027;-89
2022/05/19 07:35:09;;;;;;;4.63;2.33;;;19.70;93.10;;;;;;4994195;28;20034;-89
2022/05/19 07:37:35;;;;;;;9.45;3.65;;;19.80;93.20;;;;;;4975595;28;20043;-89
2022/05/19 07:40:01;;;;;;;6.72;2.17;;;19.90;93.30;;;;;;4989670;28;20034;-88
2022/05/19 07:42:27;;;;;;;9.85;2.20;;;19.90;92.90;;;;;;4990225;28;20035;-90
2022/05/19 07:44:53;;;;;;;13.30;2.38;;;20.00;92.80;;;;;;4993875;28;20395;-89
2022/05/19 07:47:19;;;;;;;11.27;2.25;;;20.10;92.80;;;;;;4992434;28;20034;-89
2022/05/19 07:49:46;;;;;;;7.90;2.67;;;20.20;92.70;;;;;;4992608;28;20194;-89
2022/05/19 07:52:13;;;;;;;8.50;2.40;;;20.20;92.60;;;;;;4992877;28;20089;-89
2022/05/19 07:54:39;;;;;;;9.13;2.58;;;20.30;92.30;;;;;;4995117;28;20130;-88
2022/05/19 07:57:07;;;;;;;5.25;2.38;;;20.20;91.80;;;;;;4981808;28;20058;-88
2022/05/19 07:59:36;;;;;;;12.02;2.15;;;20.30;92.50;;;;;;4997394;28;20078;-88
2022/05/19 08:02:03;;;;;;;6.82;2.25;;;20.40;91.50;;;;;;4997628;28;20030;-89
2022/05/19 08:04:29;;;;;;;9.93;2.70;;;20.50;91.70;;;;;;4993312;28;20034;-88
2022/05/19 08:06:56;;;;;;;10.10;2.15;;;20.70;91.50;;;;;;4972062;28;20057;-89
2022/05/19 08:12:16;;;;;;;4.47;2.45;;;21.00;90.80;;;;;;4998725;28;20007;-89
2022/05/19 08:17:26;;;;;;;6.67;2.40;;;21.00;90.00;;;;;;4998019;28;20055;-85
2022/05/19 08:19:52;;;;;;;12.32;2.40;;;21.00;90.10;;;;;;4997837;28;20022;-89
2022/05/19 08:22:18;;;;;;;7.97;1.98;;;21.20;90.20;;;;;;4998248;28;20050;-88
2022/05/19 08:24:49;;;;;;;6.15;2.00;;;21.50;89.20;;;;;;4998189;28;20018;-89
2022/05/19 08:27:17;;;;;;;10.52;2.38;;;21.60;88.10;;;;;;4981388;28;20045;-89
2022/05/19 08:29:43;;;;;;;9.25;2.25;;;21.50;87.70;;;;;;4998204;28;20015;-90
2022/05/19 08:32:09;;;;;;;6.85;2.03;;;21.50;87.80;;;;;;4982463;28;20026;-89
2022/05/19 08:34:37;;;;;;;10.63;2.55;;;21.50;86.20;;;;;;4980772;28;20046;-87
2022/05/19 08:37:03;;;;;;;11.43;2.45;;;21.50;86.90;;;;;;4997004;28;20042;-88
2022/05/19 08:39:29;;;;;;;15.02;2.88;;;21.50;85.40;;;;;;4995196;28;20031;-89
2022/05/19 08:42:01;;;;;;;7.20;2.40;;;21.60;85.80;;;;;;4997322;28;20078;-88
2022/05/19 08:44:38;;;;;;;6.88;2.10;;;21.60;84.90;;;;;;4981614;28;20050;-88
2022/05/19 08:47:07;;;;;;;11.70;2.42;;;21.70;84.30;;;;;;4981541;28;20042;-89
2022/05/19 08:49:54;;;;;;;8.20;2.20;;;21.70;84.50;;;;;;4998628;28;20090;-89
2022/05/19 08:52:23;;;;;;;8.98;2.05;;;21.70;84.40;;;;;;4995668;28;20042;-88
2022/05/19 08:54:56;;;;;;;9.40;2.20;;;21.80;83.90;;;;;;4996394;28;20086;-89
2022/05/19 08:57:31;;;;;;;7.38;2.15;;;21.90;83.60;;;;;;4974832;28;20038;-90
2022/05/19 09:00:10;;;;;;;13.23;2.85;;;22.00;84.40;;;;;;4989552;28;20117;-89
2022/05/19 09:02:56;;;;;;;8.20;2.35;;;22.20;83.40;;;;;;4973158;28;20058;-91
2022/05/19 09:06:07;;;;;;;14.95;2.45;;;22.30;83.50;;;;;;4989105;28;20555;-90
2022/05/19 09:09:01;;;;;;;4.15;1.95;;;22.30;81.60;;;;;;4967399;28;20049;-90
2022/05/19 09:11:55;;;;;;;5.33;2.17;;;22.30;81.90;;;;;;4989473;28;20379;-91
2022/05/19 09:14:29;;;;;;;9.02;2.33;;;22.40;81.90;;;;;;4988560;28;20302;-89
2022/05/19 09:17:04;;;;;;;7.72;2.22;;;22.50;81.50;;;;;;4944329;23;1241072;-81
2022/05/19 09:19:45;;;;;;;13.93;2.42;;;22.40;79.80;;;;;;4960635;28;20078;-84
2022/05/19 09:22:16;;;;;;;7.68;2.10;;;22.50;79.30;;;;;;4962127;28;20035;-82
2022/05/19 09:24:46;;;;;;;3.85;2.08;;;22.40;79.80;;;;;;4963169;28;20491;-80
2022/05/19 09:27:14;;;;;;;9.75;2.25;;;22.40;78.80;;;;;;4956774;29;20028;-83
2022/05/19 09:29:49;;;;;;;4.93;2.15;;;22.40;79.90;;;;;;4959245;29;20050;-81
2022/05/19 09:32:17;;;;;;;10.30;2.13;;;22.50;79.20;;;;;;4964461;29;20107;-81
2022/05/19 09:34:50;;;;;;;7.47;2.13;;;22.80;78.70;;;;;;4950282;29;20024;-79
2022/05/19 09:37:35;;;;;;;8.35;2.33;;;23.20;79.00;;;;;;4950193;29;20031;-81
2022/05/19 09:40:14;;;;;;;9.32;2.20;;;23.40;77.10;;;;;;4952949;29;20032;-80
2022/05/19 09:42:53;;;;;;;12.82;3.03;;;23.50;78.00;;;;;;4954229;29;20142;-80
2022/05/19 09:45:21;;;;;;;9.52;2.10;;;24.10;76.60;;;;;;4968935;29;20201;-81
2022/05/19 09:47:51;;;;;;;5.13;2.40;;;24.50;75.50;;;;;;4952731;29;20437;-82
2022/05/19 09:50:27;;;;;;;19.38;2.42;;;24.70;74.70;;;;;;4948420;29;20054;-83
2022/05/19 09:53:02;;;;;;;6.53;2.67;;;24.70;73.80;;;;;;4951190;29;20040;-79
2022/05/19 09:55:28;;;;;;;;;;;25.20;73.20;;;;;;4952303;29;20039;-80
2022/05/19 09:57:59;;;;;;;8.27;2.70;;;25.60;72.20;;;;;;4950384;29;19907;-80
2022/05/19 10:00:56;;;;;;;11.35;2.45;;;26.60;71.00;;;;;;4949223;29;20088;-80
2022/05/19 10:03:43;;;;;;;9.52;2.50;;;27.00;68.90;;;;;;4958588;29;20027;-80
2022/05/19 10:06:20;;;;;;;11.63;2.38;;;27.40;68.00;;;;;;4960986;28;20024;-80
2022/05/19 10:08:47;;;;;;;12.95;3.03;;;28.20;66.50;;;;;;4975868;28;20119;-81
2022/05/19 10:11:13;;;;;;;5.63;2.70;;;28.70;64.20;;;;;;4974912;29;20027;-81
2022/05/19 10:13:43;;;;;;;11.50;2.13;;;29.30;63.50;;;;;;4959475;29;20036;-80
2022/05/19 10:16:31;;;;;;;8.18;2.10;;;29.40;62.60;;;;;;4959455;29;20036;-82
2022/05/19 10:19:22;;;;;;;7.60;1.80;;;29.60;61.20;;;;;;4959312;29;20044;-81
2022/05/19 10:22:19;;;;;;;5.70;1.83;;;30.10;59.80;;;;;;4954238;29;20035;-83
2022/05/19 10:24:51;;;;;;;13.18;2.17;;;30.60;58.20;;;;;;4943569;29;20107;-83
2022/05/19 10:33:47;;;;;;;9.77;2.58;;;31.10;56.40;;;;;;4942972;29;20098;-81
2022/05/19 10:36:20;;;;;;;4.38;1.90;;;31.90;54.70;;;;;;4949056;29;20020;-81
2022/05/19 10:39:35;;;;;;;5.70;2.17;;;32.60;54.00;;;;;;4961230;29;20164;-82
2022/05/19 10:42:15;;;;;;;6.00;1.92;;;32.10;52.90;;;;;;4903075;29;20357;-80
2022/05/19 10:45:16;;;;;;;11.07;2.95;;;32.80;53.20;;;;;;4903252;29;20037;-82
2022/05/19 10:48:15;;;;;;;5.05;1.90;;;33.60;51.60;;;;;;4935632;29;20436;-82
2022/05/19 10:50:56;;;;;;;9.68;1.98;;;33.00;50.90;;;;;;4941704;29;20083;-82
2022/05/19 10:53:35;;;;;;;6.88;2.10;;;32.90;51.10;;;;;;4944036;29;20036;-81
2022/05/19 10:56:01;;;;;;;6.18;1.83;;;33.50;50.70;;;;;;4943921;29;20450;-80
2022/05/19 10:58:59;;;;;;;10.98;2.38;;;34.30;50.10;;;;;;4943332;29;20070;-82
2022/05/19 11:01:54;;;;;;;15.05;3.28;;;34.50;49.30;;;;;;4943486;29;20039;-82
2022/05/19 11:04:41;;;;;;;4.60;2.65;;;34.30;49.00;;;;;;4934678;29;20048;-80
2022/05/19 11:07:29;;;;;;;8.77;2.63;;;34.90;48.70;;;;;;4944859;29;20095;-80
2022/05/19 11:10:26;;;;;;;3.50;2.20;;;35.40;47.90;;;;;;4944402;29;20417;-82
2022/05/19 11:13:30;;;;;;;9.45;2.40;;;35.30;47.60;;;;;;4946783;29;20099;-81
2022/05/19 11:16:03;;;;;;;7.80;2.25;;;35.50;47.00;;;;;;4944203;29;20051;-82
2022/05/19 11:18:53;;;;;;;7.43;1.92;;;35.80;47.00;;;;;;4941970;29;20057;-81
2022/05/19 11:21:35;;;;;;;8.23;2.05;;;36.80;46.70;;;;;;4940488;29;20048;-81
2022/05/19 11:24:11;;;;;;;6.40;1.88;;;37.90;45.00;;;;;;4955413;29;20043;-83
2022/05/19 11:26:59;;;;;;;4.20;2.00;;;38.20;44.20;;;;;;4939543;29;20032;-81
2022/05/19 11:29:40;;;;;;;5.20;2.20;;;37.00;44.10;;;;;;4940740;29;20057;-83
2022/05/19 11:32:16;;;;;;;9.10;1.67;;;36.60;45.10;;;;;;4941755;29;20035;-81
2022/05/19 11:35:03;;;;;;;5.63;1.73;;;36.40;44.60;;;;;;4941469;29;20059;-81
2022/05/19 11:37:55;;;;;;;7.28;2.03;;;35.70;45.10;;;;;;4945319;29;20042;-83
2022/05/19 11:40:34;;;;;;;7.90;2.30;;;35.50;44.90;;;;;;4943310;29;20036;-81
2022/05/19 11:43:30;;;;;;;5.30;1.58;;;35.70;44.60;;;;;;4942571;29;20032;-82
2022/05/19 11:46:42;;;;;;;6.90;1.88;;;35.60;44.80;;;;;;4956744;28;20019;-79
2022/05/19 11:55:22;;;;;;;8.07;1.83;;;38.10;43.20;;;;;;4951160;29;20032;-82
2022/05/19 11:58:09;;;;;;;5.65;2.35;;;38.90;42.60;;;;;;4958235;29;20031;-79
2022/05/19 12:00:46;;;;;;;6.07;2.10;;;38.70;42.30;;;;;;4957792;29;20020;-79
2022/05/19 12:03:27;;;;;;;4.60;2.00;;;38.90;42.10;;;;;;4963519;28;20130;-81
2022/05/19 12:06:00;;;;;;;6.28;2.00;;;38.40;41.80;;;;;;4947912;29;20028;-81
2022/05/19 12:08:44;;;;;;;5.60;2.28;;;37.80;41.80;;;;;;4948676;29;20043;-81
2022/05/19 12:11:25;;;;;;;6.47;1.95;;;37.70;41.90;;;;;;4945081;29;20036;-81
2022/05/19 12:14:30;;;;;;;6.50;1.70;;;37.80;42.80;;;;;;4941547;29;20036;-83
2022/05/19 12:16:58;;;;;;;7.97;4.18;;;37.20;42.00;;;;;;4903519;29;20036;-82
2022/05/19 12:19:55;;;;;;;5.20;2.10;;;37.70;42.00;;;;;;4935898;29;20467;-82
2022/05/19 12:22:30;;;;;;;6.95;1.98;;;37.70;41.70;;;;;;4947017;29;20094;-80
2022/05/19 12:25:09;;;;;;;9.70;2.40;;;37.50;41.20;;;;;;4931621;29;20472;-82
2022/05/19 12:27:38;;;;;;;13.15;2.60;;;37.30;41.50;;;;;;4940429;29;20040;-82
2022/05/19 12:33:18;;;;;;;4.20;2.00;;;36.90;41.40;;;;;;4940192;29;20040;-81
2022/05/19 12:35:59;;;;;;;6.18;2.00;;;36.60;41.20;;;;;;4940019;29;20055;-82
2022/05/19 12:38:32;;;;;;;5.18;2.20;;;37.30;41.40;;;;;;4939043;29;20133;-81
2022/05/19 12:41:04;;;;;;;15.20;2.33;;;38.40;41.20;;;;;;4939008;29;20102;-82
2022/05/19 12:43:44;;;;;;;9.73;2.05;;;38.70;40.20;;;;;;4939775;29;20405;-82
2022/05/19 12:46:34;;;;;;;5.35;2.35;;;37.80;40.20;;;;;;4939658;29;20024;-80
2022/05/19 12:49:25;;;;;;;11.70;2.70;;;37.30;41.30;;;;;;4956923;29;20067;-79
2022/05/19 12:52:00;;;;;;;4.30;1.70;;;37.40;41.10;;;;;;4957969;29;20122;-81
2022/05/19 12:54:33;;;;;;;6.22;2.10;;;38.00;41.20;;;;;;4956878;29;20031;-81
2022/05/19 12:57:08;;;;;;;10.43;2.83;;;38.10;41.30;;;;;;4939786;29;20032;-81
2022/05/19 13:00:03;;;;;;;6.90;2.38;;;37.00;41.00;;;;;;4938597;29;20315;-81
2022/05/19 13:02:31;;;;;;;8.75;2.25;;;36.70;41.70;;;;;;4940639;29;20032;-81
2022/05/19 13:05:04;;;;;;;5.20;2.20;;;37.80;41.40;;;;;;4939661;29;20448;-83
2022/05/19 13:07:50;;;;;;;4.20;2.20;;;37.90;40.30;;;;;;4939603;29;20060;-82
2022/05/19 13:10:22;;;;;;;10.43;2.83;;;37.80;41.00;;;;;;4939521;29;20028;-81
2022/05/19 13:13:17;;;;;;;13.30;2.35;;;37.80;40.80;;;;;;4954288;29;20071;-82
2022/05/19 13:15:57;;;;;;;6.03;2.10;;;37.70;40.20;;;;;;4924232;29;20048;-80
2022/05/19 13:18:30;;;;;;;9.63;2.10;;;37.50;40.00;;;;;;4945965;29;20045;-82
2022/05/19 13:21:08;;;;;;;5.88;1.90;;;37.90;40.30;;;;;;4959479;29;20032;-82
2022/05/19 13:23:37;;;;;;;8.20;2.03;;;39.10;40.10;;;;;;4948771;29;20116;-81
2022/05/19 13:26:25;;;;;;;8.73;2.15;;;39.00;39.60;;;;;;4943564;29;20106;-80
2022/05/19 13:32:06;;;;;;;9.15;2.00;;;38.50;39.70;;;;;;4953682;29;20036;-80
2022/05/19 13:34:46;;;;;;;5.40;2.17;;;38.00;39.90;;;;;;4971255;29;20032;-81
2022/05/19 13:37:16;;;;;;;11.95;2.00;;;37.70;40.00;;;;;;4955120;29;20051;-80